Wetterstation Vordersexau
Wetterdaten: Woche 17.07.23 - 23.07.23 (KW29)
Datum Zeit Temp. A. Feuchte A. Luftdruck Regen Wind Richtung Taupunkt Windchill Windben
17.07.2023 00:00 18,9 C 76 % 1014,2 hPa 0,0 l/m 2,5 km/h (1 Bft) W-SW 14,6 C 18,9 C 3,6 km/h (1 Bft)
17.07.2023 01:00 17,8 C 80 % 1014,3 hPa 0,0 l/m 3,6 km/h (1 Bft) N-NW 14,3 C 17,8 C 3,6 km/h (1 Bft)
17.07.2023 02:00 17,9 C 82 % 1014,6 hPa 0,0 l/m 1,1 km/h (1 Bft) N 14,8 C 17,9 C 2,5 km/h (1 Bft)
17.07.2023 03:00 17,8 C 81 % 1014,6 hPa 0,0 l/m 0,0 km/h (0 Bft) N 14,5 C 17,8 C 0,0 km/h (0 Bft)
17.07.2023 04:00 17,5 C 84 % 1014,7 hPa 0,0 l/m 0,0 km/h (0 Bft) N 14,8 C 17,5 C 2,5 km/h (1 Bft)
17.07.2023 05:00 17,2 C 85 % 1014,8 hPa 0,0 l/m 0,0 km/h (0 Bft) N 14,7 C 17,2 C 2,5 km/h (1 Bft)
17.07.2023 06:00 16,9 C 87 % 1015,2 hPa 0,0 l/m 0,0 km/h (0 Bft) N 14,7 C 16,9 C 2,5 km/h (1 Bft)
17.07.2023 07:00 16,4 C 88 % 1015,5 hPa 0,0 l/m 0,0 km/h (0 Bft) N 14,4 C 16,4 C 0,0 km/h (0 Bft)
17.07.2023 08:00 17,9 C 83 % 1015,8 hPa 0,0 l/m 0,0 km/h (0 Bft) O-SO 15,0 C 17,9 C 2,5 km/h (1 Bft)
17.07.2023 09:00 20,3 C 74 % 1016,0 hPa 0,0 l/m 2,5 km/h (1 Bft) W 15,5 C 20,3 C 3,6 km/h (1 Bft)
17.07.2023 10:00 22,5 C 66 % 1016,5 hPa 0,0 l/m 3,6 km/h (1 Bft) W-NW 15,8 C 22,5 C 7,2 km/h (2 Bft)
17.07.2023 11:00 24,1 C 56 % 1016,5 hPa 0,0 l/m 3,6 km/h (1 Bft) W-SW 14,8 C 24,1 C 7,2 km/h (2 Bft)
17.07.2023 12:00 25,3 C 50 % 1016,2 hPa 0,0 l/m 11,2 km/h (2 Bft) W-SW 14,1 C 24,3 C 14,8 km/h (3 Bft)
17.07.2023 13:00 25,6 C 49 % 1016,2 hPa 0,0 l/m 5,0 km/h (1 Bft) SO 14,1 C 25,6 C 7,2 km/h (2 Bft)
17.07.2023 14:00 26,4 C 46 % 1015,8 hPa 0,0 l/m 5,0 km/h (1 Bft) W-SW 13,8 C 26,4 C 7,2 km/h (2 Bft)
17.07.2023 15:00 25,2 C 51 % 1015,8 hPa 0,0 l/m 7,2 km/h (2 Bft) W 14,3 C 25,0 C 13,3 km/h (3 Bft)
17.07.2023 16:00 27,0 C 47 % 1015,1 hPa 0,0 l/m 11,2 km/h (2 Bft) W-SW 14,7 C 26,2 C 14,8 km/h (3 Bft)
17.07.2023 17:00 27,4 C 45 % 1015,3 hPa 0,0 l/m 14,8 km/h (3 Bft) W-SW 14,4 C 26,2 C 22,0 km/h (4 Bft)
17.07.2023 18:00 26,2 C 48 % 1015,0 hPa 0,0 l/m 8,6 km/h (2 Bft) W-SW 14,3 C 25,7 C 14,8 km/h (3 Bft)
17.07.2023 19:00 26,9 C 47 % 1015,0 hPa 0,0 l/m 8,6 km/h (2 Bft) W 14,6 C 26,5 C 13,3 km/h (3 Bft)
17.07.2023 20:00 26,6 C 48 % 1015,0 hPa 0,0 l/m 7,2 km/h (2 Bft) W-NW 14,7 C 26,4 C 9,7 km/h (2 Bft)
17.07.2023 21:00 25,4 C 50 % 1015,5 hPa 0,0 l/m 2,5 km/h (1 Bft) W-NW 14,2 C 25,4 C 3,6 km/h (1 Bft)
17.07.2023 22:00 22,5 C 62 % 1016,3 hPa 0,0 l/m 2,5 km/h (1 Bft) W-NW 14,8 C 22,5 C 3,6 km/h (1 Bft)
17.07.2023 23:00 20,3 C 70 % 1016,8 hPa 0,0 l/m 2,5 km/h (1 Bft) W-NW 14,6 C 20,3 C 3,6 km/h (1 Bft)
18.07.2023 00:00 18,6 C 74 % 1017,6 hPa 0,0 l/m 2,5 km/h (1 Bft) W-NW 13,9 C 18,6 C 2,5 km/h (1 Bft)
18.07.2023 01:00 16,9 C 78 % 1017,8 hPa 0,0 l/m 1,1 km/h (1 Bft) N 13,0 C 16,9 C 2,5 km/h (1 Bft)
18.07.2023 02:00 16,7 C 79 % 1017,9 hPa 0,0 l/m 0,0 km/h (0 Bft) NW 13,0 C 16,7 C 0,0 km/h (0 Bft)
18.07.2023 03:00 16,0 C 80 % 1017,7 hPa 0,0 l/m 1,1 km/h (1 Bft) O-SO 12,5 C 16,0 C 3,6 km/h (1 Bft)
18.07.2023 04:00 15,3 C 79 % 1017,2 hPa 0,0 l/m 5,0 km/h (1 Bft) NO 11,7 C 15,3 C 11,2 km/h (2 Bft)
18.07.2023 05:00 14,5 C 81 % 1016,9 hPa 0,0 l/m 1,1 km/h (1 Bft) NO 11,3 C 14,5 C 2,5 km/h (1 Bft)
18.07.2023 06:00 13,1 C 86 % 1016,7 hPa 0,0 l/m 1,1 km/h (1 Bft) NO 10,8 C 13,1 C 2,5 km/h (1 Bft)
18.07.2023 07:00 13,2 C 86 % 1016,5 hPa 0,0 l/m 1,1 km/h (1 Bft) N 10,9 C 13,2 C 2,5 km/h (1 Bft)
18.07.2023 08:00 15,3 C 81 % 1016,1 hPa 0,0 l/m 0,0 km/h (0 Bft) N 12,1 C 15,3 C 0,0 km/h (0 Bft)
18.07.2023 09:00 17,3 C 72 % 1016,1 hPa 0,0 l/m 0,0 km/h (0 Bft) W 12,2 C 17,3 C 2,5 km/h (1 Bft)
18.07.2023 10:00 20,1 C 65 % 1015,4 hPa 0,0 l/m 2,5 km/h (1 Bft) W 13,3 C 20,1 C 3,6 km/h (1 Bft)
18.07.2023 11:00 22,8 C 56 % 1015,0 hPa 0,0 l/m 2,5 km/h (1 Bft) NW 13,6 C 22,8 C 7,2 km/h (2 Bft)
18.07.2023 12:00 23,2 C 54 % 1015,8 hPa 0,0 l/m 3,6 km/h (1 Bft) NW 13,4 C 23,2 C 6,1 km/h (2 Bft)
18.07.2023 13:00 23,6 C 57 % 1014,5 hPa 0,0 l/m 3,6 km/h (1 Bft) SO 14,6 C 23,6 C 6,1 km/h (2 Bft)
18.07.2023 14:00 21,3 C 70 % 1014,5 hPa 0,0 l/m 7,2 km/h (2 Bft) NW 15,6 C 21,0 C 9,7 km/h (2 Bft)
18.07.2023 15:00 21,7 C 73 % 1012,8 hPa 0,3 l/m 5,0 km/h (1 Bft) N-NO 16,6 C 21,7 C 9,7 km/h (2 Bft)
18.07.2023 16:00 22,0 C 71 % 1013,0 hPa 0,0 l/m 3,6 km/h (1 Bft) W 16,5 C 22,0 C 6,1 km/h (2 Bft)
18.07.2023 17:00 21,1 C 85 % 1012,0 hPa 1,5 l/m 3,6 km/h (1 Bft) W 18,5 C 21,1 C 6,1 km/h (2 Bft)
18.07.2023 18:00 23,9 C 75 % 1011,5 hPa 0,0 l/m 3,6 km/h (1 Bft) N 19,2 C 23,9 C 6,1 km/h (2 Bft)
18.07.2023 19:00 24,8 C 71 % 1010,2 hPa 0,0 l/m 0,0 km/h (0 Bft) NO 19,2 C 24,8 C 0,0 km/h (0 Bft)
18.07.2023 20:00 24,5 C 70 % 1009,5 hPa 0,0 l/m 1,1 km/h (1 Bft) N 18,7 C 24,5 C 2,5 km/h (1 Bft)
18.07.2023 21:00 24,0 C 74 % 1009,7 hPa 0,0 l/m 0,0 km/h (0 Bft) SO 19,1 C 24,0 C 2,5 km/h (1 Bft)
18.07.2023 22:00 22,2 C 80 % 1009,7 hPa 0,0 l/m 3,6 km/h (1 Bft) N 18,6 C 22,2 C 6,1 km/h (2 Bft)
18.07.2023 23:00 20,9 C 85 % 1010,2 hPa 0,0 l/m 0,0 km/h (0 Bft) N 18,3 C 20,9 C 0,0 km/h (0 Bft)
19.07.2023 00:00 20,1 C 87 % 1010,2 hPa 0,0 l/m 0,0 km/h (0 Bft) O 17,9 C 20,1 C 0,0 km/h (0 Bft)
19.07.2023 01:00 19,5 C 87 % 1010,1 hPa 0,0 l/m 1,1 km/h (1 Bft) O-SO 17,3 C 19,5 C 3,6 km/h (1 Bft)
19.07.2023 02:00 18,4 C 90 % 1010,1 hPa 0,0 l/m 1,1 km/h (1 Bft) N 16,7 C 18,4 C 2,5 km/h (1 Bft)
19.07.2023 03:00 17,0 C 94 % 1010,0 hPa 0,0 l/m 0,0 km/h (0 Bft) N 16,0 C 17,0 C 2,5 km/h (1 Bft)
19.07.2023 04:00 17,2 C 94 % 1010,2 hPa 0,0 l/m 0,0 km/h (0 Bft) N 16,2 C 17,2 C 2,5 km/h (1 Bft)
19.07.2023 05:00 17,0 C 96 % 1010,3 hPa 0,0 l/m 0,0 km/h (0 Bft) N 16,4 C 17,0 C 0,0 km/h (0 Bft)
19.07.2023 06:00 16,9 C 96 % 1010,6 hPa 0,0 l/m 0,0 km/h (0 Bft) N 16,3 C 16,9 C 2,5 km/h (1 Bft)
19.07.2023 07:00 16,7 C 97 % 1011,0 hPa 0,0 l/m 0,0 km/h (0 Bft) O-SO 16,2 C 16,7 C 0,0 km/h (0 Bft)
19.07.2023 08:00 17,5 C 94 % 1010,9 hPa 0,0 l/m 1,1 km/h (1 Bft) N 16,5 C 17,5 C 3,6 km/h (1 Bft)
19.07.2023 09:00 20,4 C 89 % 1011,2 hPa 0,0 l/m 0,0 km/h (0 Bft) W-SW 18,5 C 20,4 C 0,0 km/h (0 Bft)
19.07.2023 10:00 23,3 C 76 % 1011,0 hPa 0,0 l/m 2,5 km/h (1 Bft) W 18,8 C 23,3 C 2,5 km/h (1 Bft)
19.07.2023 11:00 26,1 C 65 % 1010,3 hPa 0,0 l/m 3,6 km/h (1 Bft) W-NW 19,0 C 26,1 C 6,1 km/h (2 Bft)
19.07.2023 12:00 27,7 C 57 % 1009,9 hPa 0,0 l/m 8,6 km/h (2 Bft) W 18,4 C 27,3 C 13,3 km/h (3 Bft)
19.07.2023 13:00 29,0 C 49 % 1009,4 hPa 0,0 l/m 13,3 km/h (3 Bft) W 17,2 C 28,3 C 18,4 km/h (3 Bft)
19.07.2023 14:00 29,8 C 45 % 1009,5 hPa 0,0 l/m 7,2 km/h (2 Bft) W-SW 16,6 C 29,7 C 14,8 km/h (3 Bft)
19.07.2023 15:00 28,8 C 44 % 1009,2 hPa 0,0 l/m 18,4 km/h (3 Bft) W 15,3 C 27,7 C 24,5 km/h (4 Bft)
19.07.2023 16:00 29,8 C 41 % 1008,7 hPa 0,0 l/m 8,6 km/h (2 Bft) W 15,1 C 29,6 C 11,2 km/h (2 Bft)
19.07.2023 17:00 29,1 C 42 % 1008,4 hPa 0,0 l/m 9,7 km/h (2 Bft) W 14,9 C 28,7 C 17,3 km/h (3 Bft)
19.07.2023 18:00 28,2 C 46 % 1008,5 hPa 0,0 l/m 5,0 km/h (1 Bft) NW 15,5 C 28,2 C 7,2 km/h (2 Bft)
19.07.2023 19:00 29,0 C 46 % 1008,3 hPa 0,0 l/m 3,6 km/h (1 Bft) NW 16,2 C 29,0 C 9,7 km/h (2 Bft)
19.07.2023 20:00 26,7 C 47 % 1008,4 hPa 0,0 l/m 8,6 km/h (2 Bft) NW 14,4 C 26,3 C 13,3 km/h (3 Bft)
19.07.2023 21:00 26,0 C 48 % 1009,1 hPa 0,0 l/m 2,5 km/h (1 Bft) NW 14,1 C 26,0 C 3,6 km/h (1 Bft)
19.07.2023 22:00 24,2 C 52 % 1009,5 hPa 0,0 l/m 2,5 km/h (1 Bft) NW 13,7 C 24,2 C 3,6 km/h (1 Bft)
19.07.2023 23:00 23,1 C 54 % 1010,2 hPa 0,0 l/m 1,1 km/h (1 Bft) N 13,3 C 23,1 C 3,6 km/h (1 Bft)
20.07.2023 00:00 21,9 C 58 % 1010,8 hPa 0,0 l/m 0,0 km/h (0 Bft) NO 13,3 C 21,9 C 0,0 km/h (0 Bft)
20.07.2023 01:00 21,7 C 56 % 1011,4 hPa 0,0 l/m 2,5 km/h (1 Bft) N 12,5 C 21,7 C 6,1 km/h (2 Bft)
20.07.2023 02:00 21,2 C 57 % 1011,6 hPa 0,0 l/m 0,0 km/h (0 Bft) N 12,3 C 21,2 C 0,0 km/h (0 Bft)
20.07.2023 03:00 20,4 C 63 % 1011,6 hPa 0,0 l/m 0,0 km/h (0 Bft) N 13,1 C 20,4 C 0,0 km/h (0 Bft)
20.07.2023 04:00 18,8 C 73 % 1011,5 hPa 0,0 l/m 0,0 km/h (0 Bft) N 13,9 C 18,8 C 0,0 km/h (0 Bft)
20.07.2023 05:00 18,3 C 73 % 1011,2 hPa 0,0 l/m 0,0 km/h (0 Bft) N-NO 13,4 C 18,3 C 2,5 km/h (1 Bft)
20.07.2023 06:00 17,2 C 76 % 1011,2 hPa 0,0 l/m 1,1 km/h (1 Bft) NO 12,9 C 17,2 C 2,5 km/h (1 Bft)
20.07.2023 07:00 17,0 C 76 % 1011,4 hPa 0,0 l/m 1,1 km/h (1 Bft) N 12,7 C 17,0 C 3,6 km/h (1 Bft)
20.07.2023 08:00 17,5 C 75 % 1011,7 hPa 0,0 l/m 0,0 km/h (0 Bft) W-SW 13,0 C 17,5 C 0,0 km/h (0 Bft)
20.07.2023 09:00 18,7 C 72 % 1011,9 hPa 0,0 l/m 3,6 km/h (1 Bft) W 13,5 C 18,7 C 3,6 km/h (1 Bft)
20.07.2023 10:00 20,4 C 62 % 1011,7 hPa 0,0 l/m 1,1 km/h (1 Bft) N 12,9 C 20,4 C 3,6 km/h (1 Bft)
20.07.2023 11:00 21,9 C 57 % 1011,8 hPa 0,0 l/m 2,5 km/h (1 Bft) N-NO 13,0 C 21,9 C 3,6 km/h (1 Bft)
20.07.2023 12:00 23,4 C 50 % 1011,3 hPa 0,0 l/m 2,5 km/h (1 Bft) SW 12,4 C 23,4 C 3,6 km/h (1 Bft)
20.07.2023 13:00 24,3 C 48 % 1010,9 hPa 0,0 l/m 3,6 km/h (1 Bft) SW 12,6 C 24,3 C 6,1 km/h (2 Bft)
20.07.2023 14:00 24,8 C 49 % 1010,4 hPa 0,0 l/m 1,1 km/h (1 Bft) W 13,3 C 24,8 C 3,6 km/h (1 Bft)
20.07.2023 15:00 25,8 C 44 % 1009,9 hPa 0,0 l/m 3,6 km/h (1 Bft) N-NO 12,6 C 25,8 C 7,2 km/h (2 Bft)
20.07.2023 16:00 25,5 C 44 % 1009,3 hPa 0,0 l/m 1,1 km/h (1 Bft) S-SW 12,3 C 25,5 C 2,5 km/h (1 Bft)
20.07.2023 17:00 26,3 C 42 % 1008,9 hPa 0,0 l/m 5,0 km/h (1 Bft) W 12,3 C 26,3 C 6,1 km/h (2 Bft)
20.07.2023 18:00 27,2 C 40 % 1008,2 hPa 0,0 l/m 2,5 km/h (1 Bft) NW 12,4 C 27,2 C 6,1 km/h (2 Bft)
20.07.2023 19:00 27,3 C 40 % 1007,6 hPa 0,0 l/m 7,2 km/h (2 Bft) NO 12,5 C 27,2 C 9,7 km/h (2 Bft)
20.07.2023 20:00 25,8 C 43 % 1007,7 hPa 0,0 l/m 1,1 km/h (1 Bft) N 12,3 C 25,8 C 2,5 km/h (1 Bft)
20.07.2023 21:00 24,5 C 45 % 1007,5 hPa 0,0 l/m 1,1 km/h (1 Bft) N-NO 11,8 C 24,5 C 3,6 km/h (1 Bft)
20.07.2023 22:00 21,4 C 58 % 1007,8 hPa 0,0 l/m 1,1 km/h (1 Bft) N-NO 12,8 C 21,4 C 2,5 km/h (1 Bft)
20.07.2023 23:00 18,6 C 70 % 1008,2 hPa 0,0 l/m 2,5 km/h (1 Bft) N-NO 13,0 C 18,6 C 3,6 km/h (1 Bft)
21.07.2023 00:00 18,4 C 67 % 1008,0 hPa 0,0 l/m 1,1 km/h (1 Bft) N-NO 12,2 C 18,4 C 2,5 km/h (1 Bft)
21.07.2023 01:00 17,5 C 72 % 1008,0 hPa 0,0 l/m 0,0 km/h (0 Bft) N 12,4 C 17,5 C 2,5 km/h (1 Bft)
21.07.2023 02:00 16,9 C 75 % 1007,9 hPa 0,0 l/m 0,0 km/h (0 Bft) O 12,4 C 16,9 C 2,5 km/h (1 Bft)
21.07.2023 03:00 16,7 C 74 % 1007,6 hPa 0,0 l/m 1,1 km/h (1 Bft) O-NO 12,0 C 16,7 C 2,5 km/h (1 Bft)
21.07.2023 04:00 15,9 C 78 % 1007,3 hPa 0,0 l/m 2,5 km/h (1 Bft) O-NO 12,1 C 15,9 C 2,5 km/h (1 Bft)
21.07.2023 05:00 14,3 C 83 % 1007,3 hPa 0,0 l/m 1,1 km/h (1 Bft) N 11,5 C 14,3 C 2,5 km/h (1 Bft)
21.07.2023 06:00 13,6 C 84 % 1007,3 hPa 0,0 l/m 0,0 km/h (0 Bft) NO 10,9 C 13,6 C 0,0 km/h (0 Bft)
21.07.2023 07:00 13,3 C 86 % 1007,2 hPa 0,0 l/m 1,1 km/h (1 Bft) NO 11,0 C 13,3 C 2,5 km/h (1 Bft)
21.07.2023 08:00 15,9 C 76 % 1006,8 hPa 0,0 l/m 1,1 km/h (1 Bft) N 11,7 C 15,9 C 2,5 km/h (1 Bft)
21.07.2023 09:00 17,2 C 74 % 1007,5 hPa 0,0 l/m 0,0 km/h (0 Bft) W-SW 12,5 C 17,2 C 2,5 km/h (1 Bft)
21.07.2023 10:00 20,3 C 58 % 1007,3 hPa 0,0 l/m 2,5 km/h (1 Bft) W 11,8 C 20,3 C 3,6 km/h (1 Bft)
21.07.2023 11:00 21,8 C 56 % 1007,4 hPa 0,0 l/m 2,5 km/h (1 Bft) SW 12,6 C 21,8 C 3,6 km/h (1 Bft)
21.07.2023 12:00 24,2 C 48 % 1007,0 hPa 0,0 l/m 3,6 km/h (1 Bft) W 12,5 C 24,2 C 6,1 km/h (2 Bft)
21.07.2023 13:00 23,0 C 48 % 1007,3 hPa 0,0 l/m 3,6 km/h (1 Bft) W 11,4 C 23,0 C 6,1 km/h (2 Bft)
21.07.2023 14:00 24,0 C 45 % 1007,6 hPa 0,0 l/m 1,1 km/h (1 Bft) N-NW 11,3 C 24,0 C 2,5 km/h (1 Bft)
21.07.2023 15:00 22,7 C 52 % 1008,2 hPa 0,0 l/m 9,7 km/h (2 Bft) N 12,3 C 21,7 C 17,3 km/h (3 Bft)
21.07.2023 16:00 21,3 C 58 % 1008,7 hPa 0,0 l/m 8,6 km/h (2 Bft) NO 12,7 C 20,5 C 14,8 km/h (3 Bft)
21.07.2023 17:00 18,3 C 75 % 1009,5 hPa 0,0 l/m 3,6 km/h (1 Bft) NO 13,8 C 18,3 C 9,7 km/h (2 Bft)
21.07.2023 18:00 19,9 C 72 % 1009,1 hPa 0,0 l/m 1,1 km/h (1 Bft) N 14,7 C 19,9 C 2,5 km/h (1 Bft)
21.07.2023 19:00 21,0 C 62 % 1009,3 hPa 0,0 l/m 2,5 km/h (1 Bft) NO 13,4 C 21,0 C 3,6 km/h (1 Bft)
21.07.2023 20:00 21,2 C 62 % 1009,5 hPa 0,0 l/m 1,1 km/h (1 Bft) N 13,6 C 21,2 C 2,5 km/h (1 Bft)
21.07.2023 21:00 20,4 C 64 % 1009,9 hPa 0,0 l/m 0,0 km/h (0 Bft) N 13,4 C 20,4 C 2,5 km/h (1 Bft)
21.07.2023 22:00 17,3 C 78 % 1010,6 hPa 0,0 l/m 0,0 km/h (0 Bft) N 13,4 C 17,3 C 2,5 km/h (1 Bft)
21.07.2023 23:00 15,6 C 83 % 1011,2 hPa 0,0 l/m 0,0 km/h (0 Bft) N 12,7 C 15,6 C 2,5 km/h (1 Bft)
22.07.2023 00:00 15,0 C 83 % 1011,8 hPa 0,0 l/m 0,0 km/h (0 Bft) N 12,1 C 15,0 C 0,0 km/h (0 Bft)
22.07.2023 01:00 13,9 C 87 % 1012,0 hPa 0,0 l/m 0,0 km/h (0 Bft) N 11,8 C 13,9 C 0,0 km/h (0 Bft)
22.07.2023 02:00 13,3 C 88 % 1012,1 hPa 0,0 l/m 0,0 km/h (0 Bft) N 11,4 C 13,3 C 0,0 km/h (0 Bft)
22.07.2023 03:00 12,8 C 89 % 1012,2 hPa 0,0 l/m 0,0 km/h (0 Bft) N 11,0 C 12,8 C 0,0 km/h (0 Bft)
22.07.2023 04:00 11,9 C 91 % 1011,8 hPa 0,0 l/m 0,0 km/h (0 Bft) N 10,5 C 11,9 C 0,0 km/h (0 Bft)
22.07.2023 05:00 12,4 C 91 % 1011,9 hPa 0,0 l/m 0,0 km/h (0 Bft) N 11,0 C 12,4 C 2,5 km/h (1 Bft)
22.07.2023 06:00 12,4 C 89 % 1011,8 hPa 0,0 l/m 0,0 km/h (0 Bft) N 10,6 C 12,4 C 0,0 km/h (0 Bft)
22.07.2023 07:00 12,1 C 90 % 1011,7 hPa 0,0 l/m 0,0 km/h (0 Bft) N 10,5 C 12,1 C 0,0 km/h (0 Bft)
22.07.2023 08:00 13,7 C 85 % 1012,1 hPa 0,0 l/m 0,0 km/h (0 Bft) N 11,2 C 13,7 C 2,5 km/h (1 Bft)
22.07.2023 09:00 16,3 C 77 % 1012,4 hPa 0,0 l/m 0,0 km/h (0 Bft) SO 12,3 C 16,3 C 0,0 km/h (0 Bft)
22.07.2023 10:00 19,9 C 65 % 1012,4 hPa 0,0 l/m 1,1 km/h (1 Bft) W-SW 13,1 C 19,9 C 2,5 km/h (1 Bft)
22.07.2023 11:00 22,6 C 62 % 1012,5 hPa 0,0 l/m 8,6 km/h (2 Bft) SW 14,9 C 21,9 C 11,2 km/h (2 Bft)
22.07.2023 12:00 23,9 C 50 % 1012,3 hPa 0,0 l/m 15,8 km/h (3 Bft) SW 12,8 C 21,8 C 28,1 km/h (4 Bft)
22.07.2023 13:00 23,3 C 52 % 1012,3 hPa 0,0 l/m 8,6 km/h (2 Bft) W 12,9 C 22,6 C 11,2 km/h (2 Bft)
22.07.2023 14:00 25,0 C 44 % 1011,7 hPa 0,0 l/m 13,3 km/h (3 Bft) W-SW 11,9 C 23,6 C 18,4 km/h (3 Bft)
22.07.2023 15:00 26,6 C 40 % 1011,3 hPa 0,0 l/m 12,2 km/h (2 Bft) SW 11,9 C 25,6 C 18,4 km/h (3 Bft)
22.07.2023 16:00 26,9 C 39 % 1011,0 hPa 0,0 l/m 14,8 km/h (3 Bft) S 11,8 C 25,6 C 20,9 km/h (4 Bft)
22.07.2023 17:00 27,1 C 38 % 1010,6 hPa 0,0 l/m 12,2 km/h (2 Bft) W 11,5 C 26,2 C 17,3 km/h (3 Bft)
22.07.2023 18:00 26,8 C 37 % 1010,1 hPa 0,0 l/m 14,8 km/h (3 Bft) W 10,9 C 25,5 C 20,9 km/h (4 Bft)
22.07.2023 19:00 26,5 C 39 % 1010,2 hPa 0,0 l/m 12,2 km/h (2 Bft) W-SW 11,4 C 25,5 C 14,8 km/h (3 Bft)
22.07.2023 20:00 25,7 C 43 % 1010,2 hPa 0,0 l/m 6,1 km/h (2 Bft) SW 12,2 C 25,7 C 9,7 km/h (2 Bft)
22.07.2023 21:00 24,9 C 45 % 1009,7 hPa 0,0 l/m 9,7 km/h (2 Bft) SW 12,1 C 24,1 C 11,2 km/h (2 Bft)
22.07.2023 22:00 22,4 C 53 % 1010,1 hPa 0,0 l/m 1,1 km/h (1 Bft) O-SO 12,3 C 22,4 C 2,5 km/h (1 Bft)
22.07.2023 23:00 21,3 C 56 % 1010,3 hPa 0,0 l/m 3,6 km/h (1 Bft) O-NO 12,2 C 21,3 C 3,6 km/h (1 Bft)
23.07.2023 00:00 18,3 C 69 % 1010,3 hPa 0,0 l/m 2,5 km/h (1 Bft) NO 12,5 C 18,3 C 3,6 km/h (1 Bft)
23.07.2023 01:00 16,7 C 76 % 1010,4 hPa 0,0 l/m 3,6 km/h (1 Bft) NO 12,4 C 16,7 C 3,6 km/h (1 Bft)
23.07.2023 02:00 15,7 C 79 % 1010,3 hPa 0,0 l/m 2,5 km/h (1 Bft) N 12,1 C 15,7 C 2,5 km/h (1 Bft)
23.07.2023 03:00 15,0 C 82 % 1010,0 hPa 0,0 l/m 0,0 km/h (0 Bft) N 12,0 C 15,0 C 2,5 km/h (1 Bft)
23.07.2023 04:00 14,7 C 82 % 1009,9 hPa 0,0 l/m 0,0 km/h (0 Bft) N 11,7 C 14,7 C 0,0 km/h (0 Bft)
23.07.2023 05:00 14,2 C 84 % 1009,7 hPa 0,0 l/m 0,0 km/h (0 Bft) N 11,5 C 14,2 C 0,0 km/h (0 Bft)
23.07.2023 06:00 14,2 C 84 % 1010,2 hPa 0,0 l/m 0,0 km/h (0 Bft) N 11,5 C 14,2 C 0,0 km/h (0 Bft)
23.07.2023 07:00 14,4 C 85 % 1010,3 hPa 0,0 l/m 0,0 km/h (0 Bft) N 11,9 C 14,4 C 2,5 km/h (1 Bft)
23.07.2023 08:00 16,4 C 79 % 1010,3 hPa 0,0 l/m 0,0 km/h (0 Bft) N 12,7 C 16,4 C 0,0 km/h (0 Bft)
23.07.2023 09:00 17,5 C 77 % 1010,7 hPa 0,0 l/m 0,0 km/h (0 Bft) W 13,4 C 17,5 C 2,5 km/h (1 Bft)
23.07.2023 10:00 23,6 C 53 % 1010,5 hPa 0,0 l/m 9,7 km/h (2 Bft) W-SW 13,4 C 22,7 C 17,3 km/h (3 Bft)
23.07.2023 11:00 24,1 C 52 % 1010,4 hPa 0,0 l/m 9,7 km/h (2 Bft) S 13,6 C 23,2 C 17,3 km/h (3 Bft)
23.07.2023 12:00 24,3 C 52 % 1010,5 hPa 0,0 l/m 15,8 km/h (3 Bft) W-NW 13,8 C 22,3 C 18,4 km/h (3 Bft)
23.07.2023 13:00 25,7 C 51 % 1009,9 hPa 0,0 l/m 13,3 km/h (3 Bft) W-SW 14,8 C 24,4 C 18,4 km/h (3 Bft)
23.07.2023 14:00 26,2 C 47 % 1009,3 hPa 0,0 l/m 17,3 km/h (3 Bft) W-NW 14,0 C 24,5 C 25,6 km/h (4 Bft)
23.07.2023 15:00 26,3 C 50 % 1009,0 hPa 0,0 l/m 8,6 km/h (2 Bft) W-SW 15,0 C 25,8 C 13,3 km/h (3 Bft)
23.07.2023 16:00 26,1 C 49 % 1008,9 hPa 0,0 l/m 6,1 km/h (2 Bft) S-SW 14,5 C 26,1 C 9,7 km/h (2 Bft)
23.07.2023 17:00 25,2 C 54 % 1008,7 hPa 0,0 l/m 3,6 km/h (1 Bft) N 15,2 C 25,2 C 3,6 km/h (1 Bft)
23.07.2023 18:00 25,1 C 50 % 1008,3 hPa 0,0 l/m 0,0 km/h (0 Bft) O 13,9 C 25,1 C 0,0 km/h (0 Bft)
23.07.2023 19:00 23,6 C 63 % 1007,7 hPa 0,0 l/m 1,1 km/h (1 Bft) O-SO 16,1 C 23,6 C 2,5 km/h (1 Bft)
23.07.2023 20:00 24,0 C 61 % 1006,8 hPa 0,0 l/m 1,1 km/h (1 Bft) O-SO 16,0 C 24,0 C 2,5 km/h (1 Bft)
23.07.2023 21:00 22,7 C 67 % 1006,4 hPa 0,0 l/m 1,1 km/h (1 Bft) N 16,2 C 22,7 C 2,5 km/h (1 Bft)
23.07.2023 22:00 20,9 C 70 % 1006,0 hPa 0,0 l/m 0,0 km/h (0 Bft) N 15,2 C 20,9 C 0,0 km/h (0 Bft)
23.07.2023 23:00 19,6 C 72 % 1005,9 hPa 0,0 l/m 0,0 km/h (0 Bft) N 14,4 C 19,6 C 2,5 km/h (1 Bft)
Min-Datum _ 22.07.23 22.07.23 23.07.23 - 17.07.23 - 22.07.23 22.07.23 17.07.23
_ Min-Zeit 04:21 18:21 23:21 - 03:21 - 04:21 04:21 03:21
Minimum _ 11,9 C 37 % 1005,9 hPa - 0,0 km/h (0 Bft) - 10,5 C 11,9 C 0,0 km/h (0 Bft)
Max-Datum _ 19.07.23 19.07.23 18.07.23 18.07.23 19.07.23 - 18.07.23 19.07.23 22.07.23
_ Max-Zeit 14:21 07:21 02:21 17:21 15:21 - 18:21 14:21 12:21
Maximum _ 29,8 C 97 % 1017,9 hPa 1,5 l/m 18,4 km/h
W (3 Bft)
- 19,2 C 29,7 C 28,1 km/h
SW (4 Bft)
Durchschnitt _ 20,9 C 66 % 1011,2 hPa #1,8 l/m 3,4 km/h (1 Bft) W 13,8 C 20,8 C 5,7 km/h (1 Bft)
www.sexauwetter.de